Time;durP1;ratioP1;P1;durP2;ratioP2;P2;SDS_P1;SDS_P2;PMS_P1;PMS_P2;Temp;Humidity;BMP_temperature;BMP_pressure;BME280_temperature;BME280_humidity;BME280_pressure;Samples;Min_cycle;Max_cycle;Signal;HPM_P1;HPM_P2
2022/09/30 00:00:55;;;;;;;131.70;124.95;;;;;;;;;;10232006;28;20049;-70
2022/09/30 00:05:57;;;;;;;135.70;128.80;;;;;;;;;;10235347;28;20041;-71
2022/09/30 00:10:54;;;;;;;;;;;;;;;;;;10224766;28;20045;-69
2022/09/30 00:15:50;;;;;;;139.82;132.60;;;;;;;;;;10227445;28;19934;-69
2022/09/30 00:20:46;;;;;;;137.50;130.13;;;;;;;;;;10231241;28;20053;-71
2022/09/30 00:25:42;;;;;;;137.60;130.50;;;;;;;;;;10233307;28;20051;-71
2022/09/30 00:30:39;;;;;;;135.60;128.40;;;;;;;;;;10226502;28;20064;-71
2022/09/30 00:35:36;;;;;;;133.55;126.47;;;;;;;;;;10227487;28;20052;-70
2022/09/30 00:40:32;;;;;;;136.57;129.57;;;;;;;;;;10231546;28;20694;-71
2022/09/30 00:45:30;;;;;;;134.13;127.00;;;;;;;;;;10221249;28;20038;-71
2022/09/30 00:50:45;;;;;;;136.05;129.02;;;;;;;;;;10229965;28;20499;-71
2022/09/30 00:55:41;;;;;;;143.45;135.95;;;;;;;;;;10239246;28;20045;-71
2022/09/30 01:00:37;;;;;;;133.38;126.07;;;;;;;;;;10232885;28;20527;-71
2022/09/30 01:05:34;;;;;;;128.27;121.72;;;;;;;;;;10230237;28;20061;-71
2022/09/30 01:10:30;;;;;;;135.65;128.45;;;;;;;;;;10225539;28;20045;-70
2022/09/30 01:15:33;;;;;;;132.02;125.25;;;;;;;;;;10231550;28;20052;-69
2022/09/30 01:20:53;;;;;;;132.90;126.25;;;;;;;;;;10231117;28;20419;-70
2022/09/30 01:26:02;;;;;;;134.05;127.05;;;;;;;;;;10226135;28;20052;-69
2022/09/30 01:30:58;;;;;;;131.52;124.63;;;;;;;;;;10237804;28;20049;-70
2022/09/30 01:36:13;;;;;;;137.88;130.77;;;;;;;;;;10232376;28;20049;-70
2022/09/30 01:41:27;;;;;;;137.60;130.25;;;;;;;;;;10229416;28;20053;-70
2022/09/30 01:46:26;;;;;;;132.55;125.55;;;;;;;;;;10225379;28;20451;-70
2022/09/30 01:51:34;;;;;;;137.00;129.90;;;;;;;;;;10235964;28;20507;-71
2022/09/30 01:56:35;;;;;;;138.77;131.40;;;;;;;;;;10230487;28;20042;-69
2022/09/30 02:01:38;;;;;;;140.75;133.52;;;;;;;;;;10222864;28;20426;-69
2022/09/30 02:06:37;;;;;;;143.35;136.00;;;;;;;;;;10228221;28;20049;-69
2022/09/30 02:11:35;;;;;;;140.95;133.75;;;;;;;;;;10224463;28;20571;-70
2022/09/30 02:16:37;;;;;;;148.27;140.70;;;;;;;;;;10233071;28;20046;-69
2022/09/30 02:21:37;;;;;;;145.52;137.88;;;;;;;;;;10232392;28;20410;-70
2022/09/30 02:26:36;;;;;;;144.52;136.65;;;;;;;;;;10231117;28;20044;-69
2022/09/30 02:31:33;;;;;;;149.30;141.55;;;;;;;;;;10229256;28;20686;-70
2022/09/30 02:36:32;;;;;;;147.73;140.00;;;;;;;;;;10230250;28;20561;-70
2022/09/30 02:41:31;;;;;;;143.98;136.27;;;;;;;;;;10245579;28;20517;-70
2022/09/30 02:46:37;;;;;;;144.05;136.40;;;;;;;;;;10235907;28;20052;-70
2022/09/30 02:51:37;;;;;;;138.88;131.50;;;;;;;;;;10241072;28;20523;-69
2022/09/30 02:56:42;;;;;;;142.32;134.55;;;;;;;;;;10233919;28;20529;-69
2022/09/30 03:01:40;;;;;;;140.18;132.55;;;;;;;;;;10234284;28;20060;-70
2022/09/30 03:06:37;;;;;;;151.38;143.20;;;;;;;;;;10239562;28;20474;-69
2022/09/30 03:11:34;;;;;;;149.13;141.07;;;;;;;;;;10238727;28;20045;-70
2022/09/30 03:16:39;;;;;;;144.75;136.38;;;;;;;;;;10234845;28;20041;-69
2022/09/30 03:21:38;;;;;;;143.00;135.25;;;;;;;;;;10233248;28;20073;-70
2022/09/30 03:26:37;;;;;;;138.98;131.57;;;;;;;;;;10231568;28;20046;-70
2022/09/30 03:31:39;;;;;;;141.98;134.25;;;;;;;;;;10221785;28;20060;-69
2022/09/30 03:36:44;;;;;;;136.57;129.23;;;;;;;;;;10228851;28;20459;-70
2022/09/30 03:41:47;;;;;;;136.32;128.77;;;;;;;;;;10237987;28;20045;-70
2022/09/30 03:47:01;;;;;;;137.65;130.25;;;;;;;;;;10231666;28;20408;-69
2022/09/30 03:51:58;;;;;;;138.10;130.70;;;;;;;;;;10221339;28;20057;-70
2022/09/30 03:56:55;;;;;;;142.35;134.77;;;;;;;;;;10226675;28;20049;-69
2022/09/30 04:01:51;;;;;;;140.32;132.57;;;;;;;;;;10234460;28;20050;-70
2022/09/30 04:06:48;;;;;;;136.20;128.63;;;;;;;;;;10228492;28;20511;-70
2022/09/30 04:11:44;;;;;;;145.55;137.50;;;;;;;;;;10231159;28;20056;-71
2022/09/30 04:16:41;;;;;;;139.95;132.05;;;;;;;;;;10235986;28;20041;-71
2022/09/30 04:21:38;;;;;;;145.25;137.25;;;;;;;;;;10239792;28;20482;-68
2022/09/30 04:26:34;;;;;;;139.13;131.18;;;;;;;;;;10245158;28;20044;-67
2022/09/30 04:31:30;;;;;;;141.43;133.35;;;;;;;;;;10224420;28;20598;-67
2022/09/30 04:36:27;;;;;;;133.27;125.55;;;;;;;;;;10233108;28;20053;-67
2022/09/30 04:41:24;;;;;;;128.07;120.15;;;;;;;;;;10233614;28;20145;-67
2022/09/30 04:46:21;;;;;;;135.45;127.78;;;;;;;;;;10234135;28;20108;-67
2022/09/30 04:51:19;;;;;;;132.40;124.65;;;;;;;;;;10220255;28;20060;-68
2022/09/30 04:56:15;;;;;;;139.93;131.82;;;;;;;;;;10221481;28;20062;-67
2022/09/30 05:01:13;;;;;;;141.63;133.50;;;;;;;;;;10231312;28;20049;-67
2022/09/30 05:06:10;;;;;;;141.93;132.88;;;;;;;;;;10221388;28;20432;-67
2022/09/30 05:11:10;;;;;;;140.20;132.20;;;;;;;;;;10223251;28;20060;-66
2022/09/30 05:16:06;;;;;;;133.02;125.22;;;;;;;;;;10211136;28;20041;-67
2022/09/30 05:21:03;;;;;;;133.52;125.45;;;;;;;;;;10221941;28;20539;-66
2022/09/30 05:26:00;;;;;;;139.52;131.73;;;;;;;;;;10219522;28;20053;-68
2022/09/30 05:30:58;;;;;;;135.30;127.45;;;;;;;;;;10214093;28;20045;-68
2022/09/30 05:35:57;;;;;;;139.23;131.27;;;;;;;;;;10233796;28;20477;-68
2022/09/30 05:40:54;;;;;;;132.10;124.68;;;;;;;;;;10224673;28;20076;-68
2022/09/30 05:45:51;;;;;;;137.50;129.70;;;;;;;;;;10233339;28;20041;-68
2022/09/30 05:50:49;;;;;;;133.55;125.90;;;;;;;;;;10238825;28;20419;-68
2022/09/30 05:55:49;;;;;;;134.50;126.70;;;;;;;;;;10238526;28;20219;-68
2022/09/30 06:00:47;;;;;;;136.00;128.32;;;;;;;;;;10239302;28;20056;-68
2022/09/30 06:05:44;;;;;;;136.23;128.52;;;;;;;;;;10238088;28;20513;-68
2022/09/30 06:10:41;;;;;;;134.13;126.32;;;;;;;;;;10229483;28;20463;-66
2022/09/30 06:15:38;;;;;;;136.30;128.27;;;;;;;;;;10234660;28;20037;-67
2022/09/30 06:20:37;;;;;;;136.88;128.57;;;;;;;;;;10230898;28;20044;-67
2022/09/30 06:25:33;;;;;;;140.50;131.70;;;;;;;;;;10239102;28;20786;-67
2022/09/30 06:30:30;;;;;;;139.60;131.07;;;;;;;;;;10243805;28;20060;-72
2022/09/30 06:35:30;;;;;;;140.40;131.85;;;;;;;;;;10248018;28;20045;-72
2022/09/30 06:40:27;;;;;;;137.32;128.38;;;;;;;;;;10252056;28;20495;-72
2022/09/30 06:45:23;;;;;;;128.07;120.22;;;;;;;;;;10244860;28;20045;-67
2022/09/30 06:50:28;;;;;;;138.43;130.05;;;;;;;;;;10244551;28;20706;-68
2022/09/30 06:55:26;;;;;;;138.93;130.32;;;;;;;;;;10249997;28;20084;-68
2022/09/30 07:00:22;;;;;;;136.93;128.45;;;;;;;;;;10242982;28;20535;-71
2022/09/30 07:05:19;;;;;;;145.88;136.65;;;;;;;;;;10250149;28;20626;-69
2022/09/30 07:10:16;;;;;;;147.55;138.23;;;;;;;;;;10245434;28;20426;-69
2022/09/30 07:15:12;;;;;;;150.82;140.90;;;;;;;;;;10244143;28;20079;-69
2022/09/30 07:20:09;;;;;;;150.65;141.60;;;;;;;;;;10246357;28;20038;-69
2022/09/30 07:25:05;;;;;;;150.75;141.68;;;;;;;;;;10246961;28;20489;-69
2022/09/30 07:30:02;;;;;;;151.38;142.32;;;;;;;;;;10248856;28;20714;-70
2022/09/30 07:35:06;;;;;;;158.95;149.27;;;;;;;;;;10241117;28;20050;-70
2022/09/30 07:40:04;;;;;;;166.20;156.63;;;;;;;;;;10250930;28;20051;-68
2022/09/30 07:45:01;;;;;;;164.43;154.60;;;;;;;;;;10235242;28;20088;-67
2022/09/30 07:49:57;;;;;;;167.65;157.98;;;;;;;;;;10282081;28;20084;-70
2022/09/30 07:54:54;;;;;;;165.23;155.60;;;;;;;;;;10277133;28;20060;-70
2022/09/30 07:59:50;;;;;;;163.15;153.35;;;;;;;;;;10263801;28;20453;-71
2022/09/30 08:04:47;;;;;;;163.25;154.02;;;;;;;;;;10245288;28;20052;-70
2022/09/30 08:09:43;;;;;;;164.77;155.65;;;;;;;;;;10235107;28;20057;-70
2022/09/30 08:14:39;;;;;;;156.25;147.68;;;;;;;;;;10235157;28;20128;-71
2022/09/30 08:19:36;;;;;;;152.38;144.07;;;;;;;;;;10234697;28;20052;-71
2022/09/30 08:24:32;;;;;;;139.30;131.63;;;;;;;;;;10230184;28;20048;-72
2022/09/30 08:29:28;;;;;;;121.22;114.70;;;;;;;;;;10238511;28;20045;-72
2022/09/30 08:34:45;;;;;;;98.63;93.30;;;;;;;;;;10230304;28;20029;-72
2022/09/30 08:39:42;;;;;;;86.70;82.00;;;;;;;;;;10237238;28;20043;-72
2022/09/30 08:44:43;;;;;;;60.03;56.53;;;;;;;;;;10228217;28;20470;-72
2022/09/30 08:49:43;;;;;;;43.42;40.72;;;;;;;;;;10230754;28;20037;-72
2022/09/30 08:54:41;;;;;;;28.00;26.08;;;;;;;;;;10238370;28;20060;-72
2022/09/30 08:59:39;;;;;;;25.27;23.50;;;;;;;;;;10247446;28;20045;-72
2022/09/30 09:04:35;;;;;;;26.25;24.48;;;;;;;;;;10241726;28;20046;-71
2022/09/30 09:09:33;;;;;;;22.55;21.05;;;;;;;;;;10243634;28;20410;-71
2022/09/30 09:14:29;;;;;;;20.13;18.83;;;;;;;;;;10240884;28;20040;-69
2022/09/30 09:19:31;;;;;;;19.80;18.30;;;;;;;;;;10242310;28;20040;-71
2022/09/30 09:24:39;;;;;;;21.08;19.58;;;;;;;;;;10231949;28;20066;-72
2022/09/30 09:29:51;;;;;;;17.52;16.33;;;;;;;;;;10232310;28;20514;-72
2022/09/30 09:34:50;;;;;;;15.40;14.40;;;;;;;;;;10233742;28;20042;-71
2022/09/30 09:40:06;;;;;;;13.18;12.20;;;;;;;;;;10232125;28;20068;-71
2022/09/30 09:45:11;;;;;;;12.50;11.52;;;;;;;;;;10219301;28;20050;-71
2022/09/30 09:50:16;;;;;;;14.23;13.27;;;;;;;;;;10232980;28;20052;-71
2022/09/30 09:55:15;;;;;;;14.32;13.07;;;;;;;;;;10229353;28;20404;-71
2022/09/30 10:05:40;;;;;;;12.88;11.98;;;;;;;;;;10231902;28;20034;-71
2022/09/30 10:10:42;;;;;;;13.50;12.30;;;;;;;;;;10223367;28;20041;-71
2022/09/30 10:15:41;;;;;;;12.95;12.05;;;;;;;;;;10233537;28;20470;-68
2022/09/30 10:20:37;;;;;;;12.02;11.23;;;;;;;;;;10235358;28;20422;-68
2022/09/30 10:25:34;;;;;;;13.10;12.05;;;;;;;;;;10231928;28;20042;-68
2022/09/30 10:30:53;;;;;;;13.80;12.70;;;;;;;;;;10241936;28;20049;-68
2022/09/30 10:36:04;;;;;;;12.90;11.68;;;;;;;;;;10215372;28;20048;-68
2022/09/30 10:41:01;;;;;;;12.35;11.45;;;;;;;;;;10235873;28;20053;-68
2022/09/30 10:46:02;;;;;;;12.68;11.27;;;;;;;;;;10243209;28;20059;-68
2022/09/30 10:51:37;;;;;;;11.80;11.00;;;;;;;;;;10239241;28;20037;-68
2022/09/30 10:56:39;;;;;;;11.15;10.35;;;;;;;;;;10235950;28;20520;-68
2022/09/30 11:01:39;;;;;;;10.25;9.38;;;;;;;;;;10227988;28;20046;-68
2022/09/30 11:06:39;;;;;;;10.52;9.63;;;;;;;;;;10235322;28;20639;-72
2022/09/30 11:11:38;;;;;;;10.38;9.68;;;;;;;;;;10235857;28;20581;-72
2022/09/30 11:16:51;;;;;;;9.18;8.48;;;;;;;;;;10237411;28;20052;-72
2022/09/30 11:22:13;;;;;;;10.02;9.13;;;;;;;;;;10233395;28;20044;-72
2022/09/30 11:27:23;;;;;;;9.65;8.95;;;;;;;;;;10229292;28;20051;-72
2022/09/30 11:32:23;;;;;;;9.15;8.50;;;;;;;;;;10230582;28;20081;-72
2022/09/30 11:37:25;;;;;;;9.50;8.63;;;;;;;;;;10235685;28;20049;-70
2022/09/30 11:42:40;;;;;;;8.75;8.10;;;;;;;;;;10225173;28;20060;-70
2022/09/30 11:47:50;;;;;;;8.20;7.70;;;;;;;;;;10232946;28;20049;-70
2022/09/30 11:52:54;;;;;;;8.15;7.60;;;;;;;;;;10237536;28;20064;-70
2022/09/30 11:57:53;;;;;;;8.38;7.78;;;;;;;;;;10229519;28;20049;-72
2022/09/30 12:02:51;;;;;;;8.38;7.78;;;;;;;;;;10231619;28;20045;-70
2022/09/30 12:07:53;;;;;;;8.43;7.82;;;;;;;;;;10229366;28;20087;-70
2022/09/30 12:12:53;;;;;;;8.07;7.57;;;;;;;;;;10238048;28;20046;-70
2022/09/30 12:17:53;;;;;;;8.38;7.78;;;;;;;;;;10230508;28;20444;-70
2022/09/30 12:22:51;;;;;;;9.05;8.35;;;;;;;;;;10234674;28;20518;-70
2022/09/30 12:27:53;;;;;;;8.80;8.02;;;;;;;;;;10233165;28;20060;-71
2022/09/30 12:33:01;;;;;;;9.33;8.63;;;;;;;;;;10232901;28;20045;-71
2022/09/30 12:38:17;;;;;;;9.32;8.52;;;;;;;;;;10232151;28;20095;-71
2022/09/30 12:43:16;;;;;;;10.38;9.48;;;;;;;;;;10233751;28;20072;-71
2022/09/30 12:48:17;;;;;;;9.98;9.13;;;;;;;;;;10232460;28;20107;-71
2022/09/30 12:53:18;;;;;;;9.77;9.07;;;;;;;;;;10231629;28;20050;-71
2022/09/30 12:58:19;;;;;;;9.18;8.38;;;;;;;;;;10228375;28;20396;-71
2022/09/30 13:03:16;;;;;;;9.53;8.73;;;;;;;;;;10232853;28;20499;-70
2022/09/30 13:08:13;;;;;;;8.43;7.72;;;;;;;;;;10228970;28;20085;-71
2022/09/30 13:13:09;;;;;;;9.02;8.23;;;;;;;;;;10230500;28;20050;-70
2022/09/30 13:18:21;;;;;;;9.02;8.32;;;;;;;;;;10224209;28;20041;-71
2022/09/30 13:23:37;;;;;;;8.15;7.40;;;;;;;;;;10242344;28;20049;-71
2022/09/30 13:28:36;;;;;;;8.43;7.70;;;;;;;;;;10228028;28;20041;-70
2022/09/30 13:33:40;;;;;;;8.35;7.63;;;;;;;;;;10230396;28;20491;-70
2022/09/30 13:38:39;;;;;;;8.70;7.90;;;;;;;;;;10228963;28;20080;-70
2022/09/30 13:43:55;;;;;;;8.48;7.75;;;;;;;;;;10230051;28;20044;-70
2022/09/30 13:48:54;;;;;;;8.07;7.30;;;;;;;;;;10224084;28;20462;-70
2022/09/30 13:53:53;;;;;;;8.38;7.68;;;;;;;;;;10230273;28;20400;-71
2022/09/30 13:59:02;;;;;;;8.38;7.68;;;;;;;;;;10230190;28;20041;-70
2022/09/30 14:04:17;;;;;;;8.13;7.40;;;;;;;;;;10230911;28;20503;-70
2022/09/30 14:09:13;;;;;;;8.45;7.70;;;;;;;;;;10227913;28;20049;-71
2022/09/30 14:14:12;;;;;;;9.23;8.35;;;;;;;;;;10229312;28;20046;-70
2022/09/30 14:19:12;;;;;;;9.23;8.32;;;;;;;;;;10228255;28;20045;-70
2022/09/30 14:24:08;;;;;;;9.13;8.32;;;;;;;;;;10235823;28;20053;-70
2022/09/30 14:29:15;;;;;;;9.95;8.73;;;;;;;;;;10231996;28;20044;-70
2022/09/30 14:34:12;;;;;;;9.25;7.88;;;;;;;;;;10226878;28;20049;-70
2022/09/30 14:39:12;;;;;;;9.35;8.50;;;;;;;;;;10234227;28;20052;-70
2022/09/30 14:44:15;;;;;;;9.07;8.27;;;;;;;;;;10239803;28;20060;-70
2022/09/30 14:49:14;;;;;;;11.57;8.43;;;;;;;;;;10227213;28;20064;-70
2022/09/30 14:54:21;;;;;;;9.70;8.80;;;;;;;;;;10236187;28;20077;-70
2022/09/30 14:59:19;;;;;;;9.63;8.73;;;;;;;;;;10232793;28;20041;-71
2022/09/30 15:04:17;;;;;;;10.00;9.10;;;;;;;;;;10241394;28;20052;-70
2022/09/30 15:09:13;;;;;;;9.95;9.05;;;;;;;;;;10237252;28;20041;-70
2022/09/30 15:14:17;;;;;;;10.00;9.13;;;;;;;;;;10235865;28;20045;-70
2022/09/30 15:19:21;;;;;;;9.70;8.70;;;;;;;;;;10241588;28;20511;-70
2022/09/30 15:24:18;;;;;;;8.73;8.02;;;;;;;;;;10235733;28;20049;-70
2022/09/30 15:29:15;;;;;;;9.60;8.65;;;;;;;;;;10237373;28;20045;-71
2022/09/30 15:34:14;;;;;;;8.77;8.07;;;;;;;;;;10230444;28;20045;-71
2022/09/30 15:39:21;;;;;;;9.07;8.20;;;;;;;;;;10231847;28;20121;-70
2022/09/30 15:44:27;;;;;;;9.50;8.55;;;;;;;;;;10227146;28;20050;-70
2022/09/30 15:49:43;;;;;;;9.40;8.48;;;;;;;;;;10231970;28;20522;-71
2022/09/30 15:54:40;;;;;;;9.00;8.20;;;;;;;;;;10232641;28;20597;-70
2022/09/30 15:59:54;;;;;;;10.50;8.82;;;;;;;;;;10234168;28;20080;-70
2022/09/30 16:04:52;;;;;;;9.88;8.98;;;;;;;;;;10232964;28;20052;-70
2022/09/30 16:09:48;;;;;;;9.63;8.73;;;;;;;;;;10237835;28;20777;-70
2022/09/30 16:14:48;;;;;;;10.10;8.98;;;;;;;;;;10237957;28;20045;-70
2022/09/30 16:19:52;;;;;;;8.88;7.97;;;;;;;;;;10229660;28;20037;-70
2022/09/30 16:24:48;;;;;;;9.50;8.68;;;;;;;;;;10231035;28;20423;-70
2022/09/30 16:29:45;;;;;;;9.93;9.13;;;;;;;;;;10233537;28;20467;-70
2022/09/30 16:34:41;;;;;;;9.93;8.93;;;;;;;;;;10229466;28;20038;-70
2022/09/30 16:39:38;;;;;;;10.93;9.10;;;;;;;;;;10232953;28;20046;-70
2022/09/30 16:44:36;;;;;;;9.88;9.07;;;;;;;;;;10236800;28;20046;-70
2022/09/30 16:49:33;;;;;;;10.55;9.55;;;;;;;;;;10236387;28;20054;-70
2022/09/30 16:54:29;;;;;;;9.57;8.80;;;;;;;;;;10234587;28;20049;-70
2022/09/30 16:59:26;;;;;;;10.45;9.48;;;;;;;;;;10226951;28;20045;-70
2022/09/30 17:04:22;;;;;;;10.02;9.02;;;;;;;;;;10231753;28;20050;-70
2022/09/30 17:09:19;;;;;;;10.82;9.80;;;;;;;;;;10230297;28;20045;-70
2022/09/30 17:14:16;;;;;;;11.07;9.77;;;;;;;;;;10230808;28;20057;-70
2022/09/30 17:19:12;;;;;;;9.60;8.80;;;;;;;;;;10225384;28;20526;-70
2022/09/30 17:24:09;;;;;;;10.55;9.48;;;;;;;;;;10235826;28;20533;-70
2022/09/30 17:29:05;;;;;;;10.32;9.48;;;;;;;;;;10233586;28;20041;-70
2022/09/30 17:34:22;;;;;;;11.07;10.07;;;;;;;;;;10227163;28;20781;-70
2022/09/30 17:39:19;;;;;;;10.52;9.63;;;;;;;;;;10230094;28;20045;-70
2022/09/30 17:44:16;;;;;;;16.00;11.23;;;;;;;;;;10232886;28;20447;-70
2022/09/30 17:49:12;;;;;;;11.27;10.27;;;;;;;;;;10221382;28;20061;-71
2022/09/30 17:54:09;;;;;;;11.77;10.77;;;;;;;;;;10237010;28;20056;-70
2022/09/30 17:59:05;;;;;;;11.73;10.73;;;;;;;;;;10234265;28;20045;-70
2022/09/30 18:04:02;;;;;;;11.52;10.63;;;;;;;;;;10231627;28;20051;-70
2022/09/30 18:08:59;;;;;;;11.70;10.70;;;;;;;;;;10226261;28;20407;-70
2022/09/30 18:13:56;;;;;;;11.75;10.75;;;;;;;;;;10235392;28;20056;-70
2022/09/30 18:18:53;;;;;;;12.10;11.07;;;;;;;;;;10232766;28;20099;-70
2022/09/30 18:23:50;;;;;;;12.15;11.15;;;;;;;;;;10242266;28;20041;-69
2022/09/30 18:28:49;;;;;;;12.25;11.15;;;;;;;;;;10241692;28;20348;-70
2022/09/30 18:33:47;;;;;;;13.43;11.73;;;;;;;;;;10232133;28;20519;-70
2022/09/30 18:38:46;;;;;;;12.30;11.35;;;;;;;;;;10237290;28;20072;-70
2022/09/30 18:43:46;;;;;;;11.63;10.73;;;;;;;;;;10236597;28;20042;-70
2022/09/30 18:48:43;;;;;;;11.80;10.88;;;;;;;;;;10233628;28;20119;-70
2022/09/30 18:53:39;;;;;;;11.90;10.90;;;;;;;;;;10240767;28;20049;-70
2022/09/30 18:58:36;;;;;;;12.60;11.60;;;;;;;;;;10238274;28;20041;-70
2022/09/30 19:03:32;;;;;;;12.15;10.98;;;;;;;;;;10234986;28;20052;-70
2022/09/30 19:08:28;;;;;;;12.45;11.45;;;;;;;;;;10231007;28;20038;-70
2022/09/30 19:13:27;;;;;;;13.60;12.18;;;;;;;;;;10241595;28;20052;-70
2022/09/30 19:18:23;;;;;;;13.35;12.15;;;;;;;;;;10240720;28;20051;-70
2022/09/30 19:23:20;;;;;;;13.75;12.65;;;;;;;;;;10235727;28;20124;-70
2022/09/30 19:28:17;;;;;;;14.25;13.15;;;;;;;;;;10235376;28;20419;-70
2022/09/30 19:33:14;;;;;;;14.07;12.68;;;;;;;;;;10237416;28;20128;-70
2022/09/30 19:38:12;;;;;;;15.98;14.38;;;;;;;;;;10234702;28;20045;-70
2022/09/30 19:43:09;;;;;;;16.65;14.95;;;;;;;;;;10236163;28;20422;-70
2022/09/30 19:48:06;;;;;;;18.33;16.40;;;;;;;;;;10234103;28;20056;-70
2022/09/30 19:53:02;;;;;;;16.77;15.00;;;;;;;;;;10229350;28;20068;-70
2022/09/30 19:57:58;;;;;;;17.02;15.50;;;;;;;;;;10231030;28;20059;-70
2022/09/30 20:02:56;;;;;;;16.38;14.98;;;;;;;;;;10231704;28;20044;-70
2022/09/30 20:07:52;;;;;;;17.05;15.45;;;;;;;;;;10235031;28;20507;-70
2022/09/30 20:12:48;;;;;;;16.90;15.30;;;;;;;;;;10233387;28;20052;-70
2022/09/30 20:17:45;;;;;;;18.30;16.67;;;;;;;;;;10243570;28;20072;-70
2022/09/30 20:22:41;;;;;;;17.58;15.80;;;;;;;;;;10234472;28;20046;-70
2022/09/30 20:27:41;;;;;;;16.05;14.65;;;;;;;;;;10237027;28;20049;-70
2022/09/30 20:32:38;;;;;;;16.88;15.32;;;;;;;;;;10236878;28;20148;-70
2022/09/30 20:37:34;;;;;;;18.27;16.58;;;;;;;;;;10240654;28;20038;-70
2022/09/30 20:42:31;;;;;;;19.08;17.35;;;;;;;;;;10239922;28;20040;-70
2022/09/30 20:47:27;;;;;;;19.77;17.67;;;;;;;;;;10233434;28;20073;-70
2022/09/30 20:52:24;;;;;;;18.75;16.88;;;;;;;;;;10238118;28;20041;-70
2022/09/30 20:57:20;;;;;;;18.35;16.75;;;;;;;;;;10228309;28;20042;-70
2022/09/30 21:02:16;;;;;;;18.92;17.27;;;;;;;;;;10231149;28;20037;-70
2022/09/30 21:07:12;;;;;;;19.95;18.05;;;;;;;;;;10233102;28;20054;-72
2022/09/30 21:12:09;;;;;;;19.52;17.70;;;;;;;;;;10231843;28;20049;-70
2022/09/30 21:17:09;;;;;;;18.88;17.35;;;;;;;;;;10229648;28;20037;-70
2022/09/30 21:22:07;;;;;;;19.80;18.00;;;;;;;;;;10226042;28;20048;-70
2022/09/30 21:27:04;;;;;;;18.52;16.95;;;;;;;;;;10228204;28;20679;-70
2022/09/30 21:32:01;;;;;;;18.45;16.85;;;;;;;;;;10228174;28;20606;-70
2022/09/30 21:36:57;;;;;;;19.63;17.90;;;;;;;;;;10231720;28;20500;-70
2022/09/30 21:41:54;;;;;;;18.92;17.45;;;;;;;;;;10226956;28;20047;-70
2022/09/30 21:46:51;;;;;;;20.65;18.80;;;;;;;;;;10227362;28;20056;-70
2022/09/30 21:51:47;;;;;;;21.77;20.08;;;;;;;;;;10230560;28;20492;-70
2022/09/30 21:56:44;;;;;;;20.67;18.83;;;;;;;;;;10228719;28;20404;-70
2022/09/30 22:01:40;;;;;;;20.35;18.67;;;;;;;;;;10232482;28;20545;-70
2022/09/30 22:06:36;;;;;;;19.75;18.08;;;;;;;;;;10227512;28;20069;-71
2022/09/30 22:11:33;;;;;;;19.13;17.58;;;;;;;;;;10223066;28;20411;-71
2022/09/30 22:16:30;;;;;;;20.65;18.58;;;;;;;;;;10225407;28;20488;-72
2022/09/30 22:21:30;;;;;;;20.42;18.52;;;;;;;;;;10225930;28;20048;-70
2022/09/30 22:26:27;;;;;;;19.38;17.88;;;;;;;;;;10227597;28;20049;-70
2022/09/30 22:31:24;;;;;;;20.52;18.85;;;;;;;;;;10230614;28;20041;-70
2022/09/30 22:41:37;;;;;;;18.45;17.02;;;;;;;;;;10224893;28;20495;-70
2022/09/30 22:46:34;;;;;;;18.42;17.02;;;;;;;;;;10230309;28;20396;-70
2022/09/30 22:51:31;;;;;;;18.00;16.40;;;;;;;;;;10230724;28;20037;-69
2022/09/30 22:56:29;;;;;;;17.10;15.82;;;;;;;;;;10228109;28;20578;-72
2022/09/30 23:01:25;;;;;;;17.02;15.75;;;;;;;;;;10240245;28;20835;-70
2022/09/30 23:06:23;;;;;;;16.65;15.25;;;;;;;;;;10235074;28;20048;-70
2022/09/30 23:11:22;;;;;;;16.40;15.00;;;;;;;;;;10234798;28;20041;-67
2022/09/30 23:16:18;;;;;;;18.08;16.63;;;;;;;;;;10242779;28;20595;-67
2022/09/30 23:21:17;;;;;;;17.48;16.15;;;;;;;;;;10231759;28;20048;-67
2022/09/30 23:26:13;;;;;;;17.27;16.08;;;;;;;;;;10237009;28;20119;-69
2022/09/30 23:31:11;;;;;;;17.10;15.73;;;;;;;;;;10234015;28;20056;-69
2022/09/30 23:36:09;;;;;;;16.63;15.40;;;;;;;;;;10235410;28;20046;-70
2022/09/30 23:41:06;;;;;;;16.30;14.98;;;;;;;;;;10233925;28;20045;-70
2022/09/30 23:46:06;;;;;;;16.45;15.35;;;;;;;;;;10234059;28;20041;-70
2022/09/30 23:51:04;;;;;;;16.20;15.02;;;;;;;;;;10231722;28;20056;-70
2022/09/30 23:56:04;;;;;;;16.33;15.20;;;;;;;;;;10229300;28;20049;-70
